Time;durP1;ratioP1;P1;durP2;ratioP2;P2;SDS_P1;SDS_P2;PMS_P1;PMS_P2;Temp;Humidity;BMP_temperature;BMP_pressure;BME280_temperature;BME280_humidity;BME280_pressure;Samples;Min_cycle;Max_cycle;Signal;HPM_P1;HPM_P2
2022/06/20 00:02:24;;;;;;;7.55;6.28;;;15.00;75.10;;;;;;5059413;27;95825;-68
2022/06/20 00:04:56;;;;;;;9.63;6.60;;;15.00;75.00;;;;;;5088525;27;95777;-67
2022/06/20 00:07:30;;;;;;;;;;;15.00;74.90;;;;;;5069013;27;95875;-67
2022/06/20 00:10:04;;;;;;;8.88;6.50;;;15.00;74.90;;;;;;5059700;27;97784;-68
2022/06/20 00:12:37;;;;;;;8.73;7.00;;;15.10;75.00;;;;;;5060073;27;95826;-68
2022/06/20 00:15:13;;;;;;;8.93;6.28;;;15.10;74.80;;;;;;5076490;27;96192;-68
2022/06/20 00:17:46;;;;;;;9.23;7.20;;;15.10;74.80;;;;;;5064648;27;103936;-68
2022/06/20 00:20:19;;;;;;;9.07;7.05;;;15.10;74.80;;;;;;5064269;27;97999;-69
2022/06/20 00:22:53;;;;;;;9.65;7.35;;;15.20;74.80;;;;;;5085845;27;95737;-68
2022/06/20 00:25:26;;;;;;;8.63;6.40;;;15.20;74.80;;;;;;5087404;27;97198;-69
2022/06/20 00:27:57;;;;;;;8.38;6.55;;;15.20;74.60;;;;;;5049883;27;98483;-68
2022/06/20 00:30:28;;;;;;;7.93;6.32;;;15.20;74.70;;;;;;5078355;27;95857;-69
2022/06/20 00:33:00;;;;;;;8.23;6.47;;;15.20;74.60;;;;;;5071148;27;95970;-68
2022/06/20 00:35:35;;;;;;;7.13;5.95;;;15.30;74.60;;;;;;5085131;27;96517;-68
2022/06/20 00:38:07;;;;;;;8.18;6.45;;;15.30;74.60;;;;;;5068034;27;95953;-68
2022/06/20 00:40:47;;;;;;;8.60;6.85;;;15.40;74.50;;;;;;5067497;27;96974;-68
2022/06/20 00:43:46;;;;;;;8.35;6.18;;;15.40;74.50;;;;;;5090757;27;96038;-68
2022/06/20 00:46:42;;;;;;;7.28;5.85;;;15.40;74.40;;;;;;5085812;27;97200;-68
2022/06/20 00:49:43;;;;;;;7.60;6.18;;;15.40;74.90;;;;;;5056663;27;97857;-68
2022/06/20 00:52:34;;;;;;;11.48;6.25;;;15.40;74.50;;;;;;5077244;27;96010;-68
2022/06/20 00:55:41;;;;;;;8.50;6.55;;;15.40;74.50;;;;;;5092243;27;95645;-68
2022/06/20 00:58:32;;;;;;;8.77;6.45;;;15.50;74.60;;;;;;5074009;27;96251;-67
2022/06/20 01:01:16;;;;;;;8.07;6.07;;;15.50;74.70;;;;;;5090336;27;95947;-69
2022/06/20 01:03:52;;;;;;;7.28;6.03;;;15.40;74.60;;;;;;5103609;27;96699;-68
2022/06/20 01:06:33;;;;;;;8.07;5.65;;;15.40;74.70;;;;;;5087080;27;95419;-66
2022/06/20 01:09:11;;;;;;;7.25;5.20;;;15.40;74.70;;;;;;5104399;27;95944;-66
2022/06/20 01:11:56;;;;;;;7.00;5.95;;;15.40;74.70;;;;;;5103374;27;95150;-65
2022/06/20 01:14:38;;;;;;;7.60;5.38;;;15.40;74.70;;;;;;5091127;27;95809;-65
2022/06/20 01:17:35;;;;;;;7.73;5.23;;;15.40;74.70;;;;;;5080869;27;97131;-65
2022/06/20 01:20:26;;;;;;;12.63;6.05;;;15.50;74.70;;;;;;5084552;27;95797;-67
2022/06/20 01:23:05;;;;;;;7.63;5.72;;;15.40;74.70;;;;;;5083805;27;96542;-68
2022/06/20 01:26:14;;;;;;;7.28;5.50;;;15.40;74.80;;;;;;5089390;27;95846;-69
2022/06/20 01:28:52;;;;;;;5.75;4.95;;;15.40;74.80;;;;;;5089970;27;97691;-68
2022/06/20 01:31:32;;;;;;;7.05;5.13;;;15.40;71.20;;;;;;5064783;27;95703;-69
2022/06/20 01:34:08;;;;;;;6.75;5.22;;;15.40;74.80;;;;;;5086392;27;97369;-69
2022/06/20 01:39:37;;;;;;;6.72;5.00;;;15.40;74.80;;;;;;5087058;27;95387;-66
2022/06/20 01:42:19;;;;;;;5.47;4.88;;;15.40;74.20;;;;;;5071214;27;95563;-67
2022/06/20 01:48:17;;;;;;;6.05;4.80;;;15.40;74.80;;;;;;5088187;27;101789;-66
2022/06/20 01:50:48;;;;;;;;;;;15.40;74.80;;;;;;5092147;27;95559;-67
2022/06/20 01:53:27;;;;;;;7.28;5.20;;;15.40;74.80;;;;;;5066453;27;95845;-67
2022/06/20 01:56:02;;;;;;;8.38;4.93;;;15.40;74.80;;;;;;5091088;27;97011;-66
2022/06/20 01:58:45;;;;;;;5.28;4.38;;;15.40;74.90;;;;;;5071019;27;96507;-66
2022/06/20 02:01:17;;;;;;;5.18;4.30;;;15.40;74.80;;;;;;5081125;27;96479;-67
2022/06/20 02:03:50;;;;;;;10.02;4.65;;;15.40;74.80;;;;;;5047452;27;95929;-66
2022/06/20 02:06:23;;;;;;;4.30;3.90;;;15.50;74.90;;;;;;5088505;27;96234;-67
2022/06/20 02:09:01;;;;;;;5.72;4.32;;;15.40;74.80;;;;;;5090308;27;95783;-67
2022/06/20 02:11:43;;;;;;;5.90;4.78;;;15.40;74.90;;;;;;5089126;27;95523;-67
2022/06/20 02:14:37;;;;;;;5.38;4.20;;;15.40;75.00;;;;;;5089709;27;95866;-66
2022/06/20 02:17:25;;;;;;;5.05;4.53;;;15.40;75.00;;;;;;5061102;27;96121;-66
2022/06/20 02:20:02;;;;;;;5.47;3.92;;;15.40;74.90;;;;;;5067409;27;95486;-66
2022/06/20 02:22:39;;;;;;;5.95;4.45;;;15.40;75.00;;;;;;5063530;27;96160;-66
2022/06/20 02:25:18;;;;;;;5.20;4.28;;;15.40;75.00;;;;;;5085216;27;95704;-67
2022/06/20 02:27:59;;;;;;;5.07;3.90;;;15.40;75.00;;;;;;5089460;27;96047;-66
2022/06/20 02:34:05;;;;;;;3.95;3.60;;;15.40;75.00;;;;;;5060845;27;95265;-67
2022/06/20 02:36:49;;;;;;;4.03;3.60;;;15.40;74.90;;;;;;5080089;27;95704;-68
2022/06/20 02:43:31;;;;;;;4.18;3.53;;;15.40;74.90;;;;;;5068596;27;97655;-66
2022/06/20 02:46:09;;;;;;;3.65;3.35;;;15.50;74.90;;;;;;4989727;28;95397;-67
2022/06/20 02:48:46;;;;;;;4.18;3.58;;;15.40;75.00;;;;;;4988857;28;96148;-67
2022/06/20 02:51:22;;;;;;;4.25;3.85;;;15.50;75.00;;;;;;4992140;28;97111;-67
2022/06/20 02:54:00;;;;;;;4.30;3.28;;;15.50;74.90;;;;;;4993969;28;95740;-66
2022/06/20 02:56:38;;;;;;;3.72;3.30;;;15.40;74.90;;;;;;4983230;28;95603;-66
2022/06/20 02:59:17;;;;;;;6.05;3.35;;;15.40;74.90;;;;;;4982411;28;95793;-66
2022/06/20 03:02:06;;;;;;;4.65;3.47;;;15.50;74.90;;;;;;4991152;28;97170;-67
2022/06/20 03:04:40;;;;;;;4.15;3.50;;;15.50;74.90;;;;;;4970392;28;95892;-66
2022/06/20 03:07:13;;;;;;;4.35;3.38;;;15.50;74.90;;;;;;4997971;28;95508;-67
2022/06/20 03:09:50;;;;;;;3.75;3.17;;;15.50;74.90;;;;;;4985729;28;95994;-67
2022/06/20 03:12:22;;;;;;;3.75;3.22;;;15.50;74.80;;;;;;4992132;28;96494;-67
2022/06/20 03:15:02;;;;;;;3.80;2.78;;;15.50;74.90;;;;;;4996435;28;96552;-67
2022/06/20 03:17:38;;;;;;;3.78;3.20;;;15.50;74.90;;;;;;4981143;28;95525;-67
2022/06/20 03:20:15;;;;;;;3.17;2.88;;;15.50;74.80;;;;;;5051381;27;96073;-66
2022/06/20 03:23:06;;;;;;;4.97;3.40;;;15.50;74.50;;;;;;5085239;27;96582;-67
2022/06/20 03:25:41;;;;;;;2.95;2.65;;;15.50;74.80;;;;;;5068779;27;97354;-66
2022/06/20 03:28:19;;;;;;;3.03;2.72;;;15.50;74.70;;;;;;5071180;27;95835;-67
2022/06/20 03:31:10;;;;;;;3.28;2.92;;;15.50;74.30;;;;;;5078820;27;96341;-67
2022/06/20 03:33:42;;;;;;;3.28;2.97;;;15.50;74.80;;;;;;5069033;27;98574;-66
2022/06/20 03:36:16;;;;;;;3.58;3.28;;;15.50;74.80;;;;;;5089410;27;95908;-67
2022/06/20 03:38:48;;;;;;;3.95;2.47;;;15.50;74.80;;;;;;5072727;27;95963;-66
2022/06/20 03:41:24;;;;;;;4.82;3.20;;;15.50;74.80;;;;;;5075082;27;96003;-67
2022/06/20 03:44:20;;;;;;;3.13;2.83;;;15.50;74.80;;;;;;5090729;27;96075;-67
2022/06/20 03:46:53;;;;;;;;;;;15.60;74.90;;;;;;5083051;27;98616;-67
2022/06/20 03:49:47;;;;;;;3.72;3.05;;;15.50;75.50;;;;;;5096248;27;96036;-66
2022/06/20 03:52:25;;;;;;;3.85;3.22;;;15.60;72.90;;;;;;5071601;27;96053;-67
2022/06/20 03:55:18;;;;;;;3.05;2.75;;;15.50;74.90;;;;;;5071193;27;97413;-67
2022/06/20 03:57:58;;;;;;;3.03;2.72;;;15.50;74.90;;;;;;5073149;27;95436;-67
2022/06/20 04:01:00;;;;;;;3.75;2.70;;;15.60;74.80;;;;;;5083672;27;98125;-66
2022/06/20 04:03:49;;;;;;;3.33;2.63;;;15.60;74.80;;;;;;5070536;27;96027;-67
2022/06/20 04:06:38;;;;;;;3.47;2.75;;;15.60;74.80;;;;;;5084443;27;96460;-67
2022/06/20 04:12:43;;;;;;;3.40;2.67;;;15.60;75.00;;;;;;5089457;27;95301;-67
2022/06/20 04:15:21;;;;;;;3.00;2.47;;;15.60;75.00;;;;;;5086388;27;95824;-66
2022/06/20 04:18:29;;;;;;;2.50;2.30;;;15.60;75.00;;;;;;5085846;27;102504;-66
2022/06/20 04:21:13;;;;;;;3.10;2.60;;;15.70;75.10;;;;;;5089651;27;95832;-66
2022/06/20 04:24:12;;;;;;;3.25;2.53;;;15.70;75.10;;;;;;5081790;27;95739;-66
2022/06/20 04:26:49;;;;;;;2.42;2.20;;;15.70;75.10;;;;;;5103674;27;95099;-66
2022/06/20 04:29:33;;;;;;;2.30;2.10;;;15.70;75.80;;;;;;5083274;27;95274;-67
2022/06/20 04:32:25;;;;;;;3.35;2.55;;;15.70;75.10;;;;;;5077767;27;96063;-67
2022/06/20 04:35:04;;;;;;;2.15;1.95;;;15.80;75.10;;;;;;5093486;27;95343;-66
2022/06/20 04:38:05;;;;;;;2.22;2.03;;;15.80;75.00;;;;;;5047237;27;96327;-66
2022/06/20 04:40:58;;;;;;;2.22;2.00;;;15.90;75.00;;;;;;5089502;27;95729;-67
2022/06/20 04:44:00;;;;;;;2.40;2.20;;;15.90;75.00;;;;;;5085054;27;97877;-66
2022/06/20 04:46:45;;;;;;;2.55;1.73;;;15.90;73.50;;;;;;5060948;27;98008;-67
2022/06/20 04:49:21;;;;;;;2.13;1.90;;;15.90;74.90;;;;;;5091810;27;95666;-68
2022/06/20 04:51:53;;;;;;;2.40;2.20;;;15.90;75.00;;;;;;5080511;27;96728;-72
2022/06/20 04:54:25;;;;;;;3.85;2.83;;;16.00;74.90;;;;;;5079814;27;95724;-71
2022/06/20 04:56:58;;;;;;;2.58;2.00;;;16.00;75.20;;;;;;5056000;27;95959;-69
2022/06/20 04:59:31;;;;;;;6.72;2.20;;;16.10;75.10;;;;;;5069656;27;95820;-68
2022/06/20 05:02:07;;;;;;;2.30;2.10;;;16.20;75.10;;;;;;5077844;27;96018;-68
2022/06/20 05:04:42;;;;;;;2.50;2.13;;;16.30;75.10;;;;;;5083562;27;97285;-71
2022/06/20 05:07:27;;;;;;;2.45;2.05;;;16.30;74.90;;;;;;5089335;27;95815;-70
2022/06/20 05:10:08;;;;;;;2.20;1.92;;;16.40;74.80;;;;;;5065738;27;95344;-70
2022/06/20 05:13:20;;;;;;;5.25;1.40;;;16.50;74.00;;;;;;5086870;27;96310;-69
2022/06/20 05:15:54;;;;;;;3.60;2.28;;;16.50;71.60;;;;;;5062544;27;95876;-70
2022/06/20 05:18:58;;;;;;;1.15;1.05;;;16.60;72.70;;;;;;5090547;27;95478;-68
2022/06/20 05:21:38;;;;;;;2.33;1.30;;;16.70;72.20;;;;;;5072678;27;96569;-71
2022/06/20 05:24:33;;;;;;;2.67;1.00;;;16.70;71.60;;;;;;5076729;27;98031;-71
2022/06/20 05:27:25;;;;;;;1.08;0.90;;;16.80;69.80;;;;;;5070978;27;97052;-70
2022/06/20 05:30:04;;;;;;;1.00;0.80;;;16.80;71.00;;;;;;5070518;27;95959;-71
2022/06/20 05:32:49;;;;;;;1.73;1.08;;;16.90;69.20;;;;;;5064941;27;95830;-70
2022/06/20 05:35:27;;;;;;;1.17;1.02;;;16.90;68.90;;;;;;5056393;27;95996;-70
2022/06/20 05:38:26;;;;;;;1.27;0.90;;;17.00;68.00;;;;;;5056249;27;97570;-72
2022/06/20 05:41:00;;;;;;;1.00;0.90;;;17.00;67.90;;;;;;5055506;27;95588;-71
2022/06/20 05:43:33;;;;;;;1.42;1.23;;;16.90;69.30;;;;;;5058539;27;95362;-71
2022/06/20 05:46:11;;;;;;;2.25;1.40;;;16.90;67.10;;;;;;5055901;27;98830;-73
2022/06/20 05:48:55;;;;;;;2.22;1.20;;;16.90;66.90;;;;;;5069974;27;96067;-75
2022/06/20 05:51:28;;;;;;;1.90;1.25;;;16.80;66.80;;;;;;5093758;27;96068;-72
2022/06/20 05:54:17;;;;;;;1.77;1.30;;;16.80;67.20;;;;;;5076468;27;95991;-73
2022/06/20 05:57:00;;;;;;;2.03;1.63;;;16.90;67.00;;;;;;5089748;27;96127;-73
2022/06/20 05:59:52;;;;;;;1.58;1.38;;;16.80;66.10;;;;;;5090997;27;96211;-71
2022/06/20 06:02:46;;;;;;;5.32;2.08;;;16.70;66.00;;;;;;5064065;27;95677;-72
2022/06/20 06:05:20;;;;;;;1.88;1.77;;;16.50;65.70;;;;;;5073444;27;95839;-73
2022/06/20 06:08:17;;;;;;;3.55;1.90;;;16.40;67.30;;;;;;5071665;27;98082;-74
2022/06/20 06:11:10;;;;;;;2.97;1.65;;;16.60;68.50;;;;;;5073022;27;96948;-73
2022/06/20 06:14:00;;;;;;;4.47;1.70;;;17.00;69.00;;;;;;5087297;27;96210;-72
2022/06/20 06:16:49;;;;;;;3.33;2.10;;;17.10;69.00;;;;;;5089182;27;96127;-72
2022/06/20 06:19:42;;;;;;;1.50;1.40;;;17.30;69.30;;;;;;5073087;27;96410;-73
2022/06/20 06:22:26;;;;;;;1.58;1.45;;;17.40;69.40;;;;;;5089447;27;95579;-70
2022/06/20 06:25:17;;;;;;;2.33;1.63;;;17.50;69.50;;;;;;5090951;27;95790;-74
2022/06/20 06:27:48;;;;;;;1.90;1.70;;;17.60;69.50;;;;;;5088577;27;96997;-72
2022/06/20 06:30:39;;;;;;;2.80;1.40;;;17.70;69.80;;;;;;5049172;27;98258;-74
2022/06/20 06:33:29;;;;;;;1.20;1.13;;;17.70;70.00;;;;;;5069707;27;96077;-70
2022/06/20 06:36:11;;;;;;;1.58;1.48;;;17.80;70.00;;;;;;5091454;27;95876;-73
2022/06/20 06:39:03;;;;;;;3.17;1.45;;;17.90;69.50;;;;;;5090798;27;95819;-70
2022/06/20 06:41:38;;;;;;;2.13;1.20;;;17.80;69.00;;;;;;5069172;27;95448;-70
2022/06/20 06:44:43;;;;;;;1.52;1.40;;;17.80;69.40;;;;;;5070127;27;96258;-71
2022/06/20 06:47:45;;;;;;;1.98;1.65;;;17.80;66.00;;;;;;5063819;27;96212;-70
2022/06/20 06:50:39;;;;;;;1.50;1.38;;;17.90;69.60;;;;;;5086952;27;96511;-71
2022/06/20 06:53:44;;;;;;;1.35;1.25;;;17.90;69.60;;;;;;5085630;27;97921;-72
2022/06/20 06:56:18;;;;;;;3.05;2.67;;;18.00;69.60;;;;;;5089393;27;95493;-73
2022/06/20 06:59:13;;;;;;;2.67;2.38;;;18.00;69.60;;;;;;5091858;27;95597;-74
2022/06/20 07:01:48;;;;;;;3.08;2.25;;;18.00;69.60;;;;;;5072369;27;95977;-75
2022/06/20 07:04:24;;;;;;;4.60;2.30;;;18.00;69.60;;;;;;5086869;27;96033;-74
2022/06/20 07:07:20;;;;;;;2.78;1.77;;;18.00;69.60;;;;;;5091320;27;95524;-73
2022/06/20 07:09:56;;;;;;;2.35;2.05;;;18.00;69.50;;;;;;5071437;27;96098;-75
2022/06/20 07:12:32;;;;;;;2.00;1.85;;;18.00;69.50;;;;;;5087971;27;95634;-74
2022/06/20 07:15:21;;;;;;;2.00;1.73;;;18.00;69.40;;;;;;5091963;27;96060;-74
2022/06/20 07:18:10;;;;;;;1.90;1.50;;;18.00;69.40;;;;;;5072149;27;102237;-74
2022/06/20 07:20:46;;;;;;;2.20;1.80;;;18.00;69.40;;;;;;5071628;27;95571;-74
2022/06/20 07:23:19;;;;;;;1.58;1.48;;;18.00;69.40;;;;;;5067654;27;95437;-74
2022/06/20 07:25:50;;;;;;;1.50;1.40;;;18.00;69.40;;;;;;5089516;27;96391;-74
2022/06/20 07:28:44;;;;;;;1.83;1.67;;;18.00;69.40;;;;;;5067141;27;95428;-73
2022/06/20 07:31:37;;;;;;;3.72;1.73;;;17.90;69.50;;;;;;5065555;27;95957;-72
2022/06/20 07:34:11;;;;;;;1.30;1.20;;;17.90;69.50;;;;;;5088500;27;96803;-72
2022/06/20 07:36:55;;;;;;;1.30;1.20;;;17.90;69.70;;;;;;5091207;27;98108;-70
2022/06/20 07:39:38;;;;;;;1.48;1.38;;;17.90;69.70;;;;;;5093896;27;95161;-71
2022/06/20 07:42:17;;;;;;;1.40;1.17;;;17.90;69.80;;;;;;5090809;27;95289;-71
2022/06/20 07:44:55;;;;;;;2.17;1.27;;;17.90;69.80;;;;;;5102467;27;95652;-71
2022/06/20 07:47:32;;;;;;;1.15;1.05;;;17.90;69.90;;;;;;5091176;27;96065;-71
2022/06/20 07:50:15;;;;;;;1.08;0.90;;;17.90;69.80;;;;;;5099931;27;100035;-71
2022/06/20 07:52:59;;;;;;;1.45;1.25;;;17.90;69.90;;;;;;5073989;27;96389;-72
2022/06/20 07:55:33;;;;;;;1.50;1.40;;;17.90;69.80;;;;;;5071661;27;95262;-74
2022/06/20 07:58:19;;;;;;;1.13;1.00;;;17.90;69.90;;;;;;5073369;27;99299;-72
2022/06/20 08:00:52;;;;;;;1.35;1.25;;;17.90;69.90;;;;;;5081594;27;95982;-73
2022/06/20 08:03:45;;;;;;;1.17;1.02;;;17.90;70.00;;;;;;5091289;27;95942;-73
2022/06/20 08:06:25;;;;;;;1.42;1.02;;;17.90;70.00;;;;;;5089827;27;95360;-72
2022/06/20 08:09:22;;;;;;;1.52;1.30;;;17.90;70.00;;;;;;5077603;27;96725;-73
2022/06/20 08:12:21;;;;;;;1.35;1.25;;;17.90;70.70;;;;;;5092549;27;95857;-73
2022/06/20 08:15:05;;;;;;;1.70;1.42;;;17.90;70.10;;;;;;5060431;27;95602;-72
2022/06/20 08:17:38;;;;;;;1.73;1.15;;;17.90;70.20;;;;;;5084761;27;98026;-74
2022/06/20 08:20:11;;;;;;;1.08;1.05;;;17.90;70.30;;;;;;5075163;27;98450;-71
2022/06/20 08:22:54;;;;;;;1.70;1.45;;;17.80;70.20;;;;;;5075722;27;95810;-71
2022/06/20 08:25:31;;;;;;;1.23;1.13;;;17.90;70.30;;;;;;5076105;27;95866;-70
2022/06/20 08:28:10;;;;;;;1.40;1.30;;;17.90;70.30;;;;;;5070384;27;96259;-70
2022/06/20 08:30:52;;;;;;;2.00;1.50;;;17.90;70.30;;;;;;5087025;27;95392;-71
2022/06/20 08:33:25;;;;;;;3.42;1.65;;;17.90;70.30;;;;;;5076836;27;95719;-71
2022/06/20 08:36:08;;;;;;;4.70;1.45;;;17.90;70.40;;;;;;5095679;27;95279;-72
2022/06/20 08:39:03;;;;;;;1.70;1.58;;;17.90;70.40;;;;;;5072482;27;96383;-71
2022/06/20 08:41:56;;;;;;;1.70;1.23;;;17.80;70.40;;;;;;5091444;27;96031;-71
2022/06/20 08:45:05;;;;;;;1.88;1.20;;;17.80;70.40;;;;;;5087964;27;95930;-72
2022/06/20 08:48:12;;;;;;;1.58;1.42;;;17.80;70.50;;;;;;5069327;27;95332;-74
2022/06/20 08:51:02;;;;;;;1.55;1.45;;;17.80;70.60;;;;;;5091865;27;96601;-70
2022/06/20 08:54:00;;;;;;;2.70;1.23;;;17.80;70.70;;;;;;5048004;27;96323;-71
2022/06/20 08:56:52;;;;;;;1.60;1.50;;;17.80;70.70;;;;;;5083830;27;95947;-72
2022/06/20 08:59:51;;;;;;;1.30;1.20;;;17.80;70.70;;;;;;5092403;27;95776;-71
2022/06/20 09:02:58;;;;;;;1.42;1.33;;;17.80;70.80;;;;;;5069353;27;98143;-71
2022/06/20 09:05:50;;;;;;;1.75;1.50;;;17.80;70.90;;;;;;5093896;27;96093;-71
2022/06/20 09:08:40;;;;;;;2.08;1.40;;;17.80;70.90;;;;;;5092349;27;95775;-71
2022/06/20 09:11:42;;;;;;;1.37;1.27;;;17.80;70.90;;;;;;5086988;27;95551;-69
2022/06/20 09:14:56;;;;;;;1.20;1.10;;;17.80;71.20;;;;;;5086923;27;96402;-70
2022/06/20 09:17:48;;;;;;;2.35;1.38;;;17.80;71.30;;;;;;5083468;27;98612;-73
2022/06/20 09:20:41;;;;;;;1.30;1.20;;;17.80;71.20;;;;;;5074150;27;95399;-70
2022/06/20 09:23:32;;;;;;;2.20;1.23;;;17.80;71.10;;;;;;5089995;27;95466;-72
2022/06/20 09:26:31;;;;;;;1.40;1.30;;;17.80;71.00;;;;;;5088387;27;95559;-71
2022/06/20 09:29:33;;;;;;;2.45;1.35;;;17.90;71.00;;;;;;5089298;27;96157;-71
2022/06/20 09:32:11;;;;;;;;;;;17.90;71.20;;;;;;5082258;27;96395;-71
2022/06/20 09:34:49;;;;;;;1.92;1.42;;;17.80;71.10;;;;;;5091105;27;96285;-71
2022/06/20 09:38:06;;;;;;;2.88;1.40;;;17.80;71.10;;;;;;5092533;27;95854;-73
2022/06/20 09:40:58;;;;;;;1.25;1.15;;;17.80;71.20;;;;;;5091270;27;96965;-71
2022/06/20 09:44:02;;;;;;;1.50;1.27;;;17.80;71.20;;;;;;5072067;27;95850;-71
2022/06/20 09:46:41;;;;;;;1.85;1.20;;;17.80;71.30;;;;;;5048073;27;96075;-70
2022/06/20 09:49:33;;;;;;;1.80;1.30;;;17.80;71.30;;;;;;5057107;27;95872;-72
2022/06/20 09:52:28;;;;;;;1.40;1.20;;;17.80;71.40;;;;;;5088751;27;95758;-70
2022/06/20 09:55:05;;;;;;;2.28;1.40;;;17.80;71.40;;;;;;5091239;27;95899;-71
2022/06/20 09:57:46;;;;;;;1.60;1.15;;;17.80;70.20;;;;;;5092288;27;96151;-71
2022/06/20 10:00:26;;;;;;;1.60;1.35;;;17.80;71.40;;;;;;5086953;27;97598;-70
2022/06/20 10:03:20;;;;;;;1.52;1.42;;;17.80;71.40;;;;;;5091094;27;102645;-73
2022/06/20 10:06:16;;;;;;;1.25;1.15;;;17.80;71.40;;;;;;5090365;27;96112;-71
2022/06/20 10:09:18;;;;;;;2.20;1.15;;;17.80;71.40;;;;;;5092009;27;95330;-73
2022/06/20 10:12:03;;;;;;;1.70;1.50;;;17.80;71.50;;;;;;5065309;27;95832;-70
2022/06/20 10:14:46;;;;;;;1.50;1.40;;;17.80;71.50;;;;;;5084872;27;96077;-71
2022/06/20 10:17:52;;;;;;;1.48;1.38;;;17.80;71.50;;;;;;5063821;27;95901;-71
2022/06/20 10:20:30;;;;;;;2.38;1.17;;;17.80;71.50;;;;;;5088357;27;95948;-71
2022/06/20 10:23:18;;;;;;;1.48;1.38;;;17.80;71.50;;;;;;5090505;27;95750;-71
2022/06/20 10:26:06;;;;;;;1.52;1.20;;;17.80;71.50;;;;;;5091720;27;96621;-70
2022/06/20 10:28:55;;;;;;;1.73;1.45;;;17.80;71.50;;;;;;5088179;27;95928;-73
2022/06/20 10:31:40;;;;;;;1.65;1.55;;;17.80;71.50;;;;;;5080933;27;96046;-71
2022/06/20 10:34:15;;;;;;;0.88;0.88;;;17.80;71.70;;;;;;5056581;27;96148;-71
2022/06/20 10:37:17;;;;;;;1.55;1.42;;;17.80;71.60;;;;;;5088452;27;96537;-72
2022/06/20 10:39:57;;;;;;;1.40;1.30;;;17.80;71.60;;;;;;5083926;27;95663;-71
2022/06/20 10:42:44;;;;;;;1.35;1.25;;;17.80;71.60;;;;;;5086977;27;96246;-71
2022/06/20 10:45:46;;;;;;;1.25;1.15;;;17.80;71.60;;;;;;5092438;27;95449;-72
2022/06/20 10:48:40;;;;;;;2.30;1.80;;;17.80;71.50;;;;;;5091364;27;102651;-75
2022/06/20 10:51:38;;;;;;;1.33;1.13;;;17.80;71.70;;;;;;5094317;27;95436;-74
2022/06/20 10:54:30;;;;;;;1.38;1.27;;;17.80;71.70;;;;;;5062287;27;95927;-73
2022/06/20 10:57:23;;;;;;;3.13;1.58;;;17.80;71.60;;;;;;5080153;27;95057;-73
2022/06/20 11:00:01;;;;;;;1.70;1.30;;;17.80;71.60;;;;;;5099207;27;95250;-74
2022/06/20 11:02:46;;;;;;;1.35;1.20;;;17.70;71.60;;;;;;5096304;27;96309;-74
2022/06/20 11:05:22;;;;;;;1.48;1.30;;;17.70;71.60;;;;;;5097155;27;96227;-74
2022/06/20 11:08:19;;;;;;;1.50;1.40;;;17.70;71.60;;;;;;5069262;27;95601;-73
2022/06/20 11:11:08;;;;;;;3.25;1.75;;;17.70;71.50;;;;;;5088666;27;96784;-73
2022/06/20 11:13:48;;;;;;;1.40;1.30;;;17.70;71.60;;;;;;5086173;27;97667;-75
2022/06/20 11:16:29;;;;;;;1.40;1.30;;;17.60;71.50;;;;;;5081347;27;96404;-75
2022/06/20 11:19:11;;;;;;;3.45;1.60;;;17.70;71.60;;;;;;5065688;27;96037;-76
2022/06/20 11:21:45;;;;;;;1.55;1.45;;;17.70;71.70;;;;;;5082203;27;96078;-73
2022/06/20 11:24:30;;;;;;;1.13;1.08;;;17.70;71.60;;;;;;5065508;27;95848;-72
2022/06/20 11:27:14;;;;;;;1.40;1.23;;;17.60;71.60;;;;;;5065234;27;95887;-73
2022/06/20 11:30:18;;;;;;;1.85;1.33;;;17.60;71.60;;;;;;5069223;27;96021;-73
2022/06/20 11:33:06;;;;;;;1.30;1.20;;;17.60;71.50;;;;;;5082103;27;103333;-73
2022/06/20 11:35:43;;;;;;;1.92;1.35;;;17.60;71.60;;;;;;5083702;27;95411;-72
2022/06/20 11:38:38;;;;;;;1.90;1.60;;;17.60;71.60;;;;;;5068103;27;95870;-73
2022/06/20 11:41:18;;;;;;;1.88;1.55;;;17.60;71.60;;;;;;5083063;27;95737;-74
2022/06/20 11:44:07;;;;;;;3.85;1.83;;;17.60;71.60;;;;;;5065132;27;97535;-72
2022/06/20 11:47:07;;;;;;;1.52;1.42;;;17.60;71.60;;;;;;5054852;27;98331;-72
2022/06/20 11:50:10;;;;;;;2.50;1.65;;;17.60;71.50;;;;;;5073887;27;96479;-76
2022/06/20 11:53:02;;;;;;;1.50;1.40;;;17.60;71.60;;;;;;5085259;27;96618;-76
2022/06/20 11:55:43;;;;;;;1.50;1.40;;;17.60;71.60;;;;;;5088907;27;97858;-73
2022/06/20 11:58:30;;;;;;;1.73;1.10;;;17.60;71.70;;;;;;5087965;27;95815;-75
2022/06/20 12:01:23;;;;;;;1.58;1.48;;;17.50;71.60;;;;;;5064253;27;98226;-74
2022/06/20 12:04:16;;;;;;;1.42;1.23;;;17.60;71.60;;;;;;5085283;27;96666;-72
2022/06/20 12:07:24;;;;;;;2.50;1.75;;;17.50;71.70;;;;;;5084140;22;95832;-61
2022/06/20 12:10:02;;;;;;;1.40;1.30;;;17.50;71.70;;;;;;5005426;27;96257;-61
2022/06/20 12:12:40;;;;;;;1.63;1.52;;;17.50;71.60;;;;;;5040775;27;95839;-61
2022/06/20 12:15:34;;;;;;;2.55;1.60;;;17.50;71.70;;;;;;5031102;27;95940;-61
2022/06/20 12:18:23;;;;;;;1.52;1.42;;;17.50;71.60;;;;;;5031271;27;103039;-62
2022/06/20 12:24:03;;;;;;;1.88;1.50;;;17.50;71.80;;;;;;5037654;27;97302;-63
2022/06/20 12:26:39;;;;;;;1.20;1.10;;;17.50;71.80;;;;;;5026502;27;96113;-61
2022/06/20 12:29:20;;;;;;;1.50;1.40;;;17.50;71.80;;;;;;5041095;27;96051;-61
2022/06/20 12:31:57;;;;;;;1.63;1.52;;;17.50;71.80;;;;;;5034880;27;96103;-61
2022/06/20 12:34:51;;;;;;;1.58;1.48;;;17.40;71.80;;;;;;5032385;27;96262;-61
2022/06/20 12:37:33;;;;;;;1.25;1.20;;;17.40;71.90;;;;;;5038597;27;95933;-62
2022/06/20 12:40:23;;;;;;;1.50;1.40;;;17.40;71.80;;;;;;5035975;27;95683;-61
2022/06/20 12:43:06;;;;;;;2.42;2.17;;;17.40;71.80;;;;;;5027683;27;95888;-62
2022/06/20 12:45:51;;;;;;;1.60;1.50;;;17.40;71.80;;;;;;5020899;27;95840;-63
2022/06/20 12:48:35;;;;;;;1.77;1.60;;;17.40;71.80;;;;;;5022473;27;95841;-64
2022/06/20 12:51:26;;;;;;;2.10;1.83;;;17.40;71.80;;;;;;5036167;27;96136;-63
2022/06/20 12:54:18;;;;;;;2.15;2.05;;;17.40;71.80;;;;;;5024050;27;95843;-63
2022/06/20 12:57:19;;;;;;;2.53;2.25;;;17.40;71.90;;;;;;5024151;27;95734;-62
2022/06/20 12:59:55;;;;;;;1.70;1.60;;;17.40;71.90;;;;;;5029203;27;95932;-61
2022/06/20 13:02:25;;;;;;;1.92;1.80;;;17.40;72.50;;;;;;5022509;27;96831;-63
2022/06/20 13:05:06;;;;;;;2.20;2.00;;;17.40;71.90;;;;;;5040358;27;95734;-63
2022/06/20 13:07:44;;;;;;;2.63;1.80;;;17.40;71.90;;;;;;5013898;28;95882;-63
2022/06/20 13:10:40;;;;;;;2.00;1.90;;;17.40;71.90;;;;;;5035631;27;96286;-61
2022/06/20 13:13:51;;;;;;;2.40;2.20;;;17.40;71.90;;;;;;5031048;27;96603;-63
2022/06/20 13:16:49;;;;;;;2.20;2.00;;;17.40;71.90;;;;;;5001728;27;96804;-63
2022/06/20 13:19:44;;;;;;;2.10;2.00;;;17.40;71.90;;;;;;5036388;27;96389;-63
2022/06/20 13:22:38;;;;;;;2.72;2.40;;;17.30;72.00;;;;;;5036631;27;95651;-61
2022/06/20 13:25:34;;;;;;;2.30;2.10;;;17.30;72.00;;;;;;5032226;27;96861;-61
2022/06/20 13:28:23;;;;;;;2.33;2.13;;;17.30;71.90;;;;;;5046975;27;95843;-62
2022/06/20 13:31:20;;;;;;;2.10;2.00;;;17.30;71.90;;;;;;5029640;27;95669;-62
2022/06/20 13:34:23;;;;;;;2.80;2.60;;;17.30;72.00;;;;;;5039586;27;95808;-62
2022/06/20 13:37:17;;;;;;;2.63;2.20;;;17.20;72.00;;;;;;5043994;27;96368;-61
2022/06/20 13:39:53;;;;;;;2.53;2.22;;;17.20;72.20;;;;;;5030194;27;95403;-62
2022/06/20 13:42:43;;;;;;;2.00;1.90;;;17.10;72.30;;;;;;5038650;27;95719;-53
2022/06/20 13:45:46;;;;;;;2.80;1.92;;;17.10;72.50;;;;;;5004753;27;101037;-63
2022/06/20 13:48:50;;;;;;;3.25;2.38;;;17.20;72.80;;;;;;4897969;27;3271173;-62
2022/06/20 13:51:50;;;;;;;2.20;2.00;;;17.20;72.60;;;;;;5012502;28;95945;-62
2022/06/20 13:54:36;;;;;;;2.58;2.38;;;17.30;72.50;;;;;;5013384;28;96081;-59
2022/06/20 13:57:21;;;;;;;3.58;2.40;;;17.30;69.60;;;;;;5017192;27;95748;-60
2022/06/20 13:59:58;;;;;;;4.07;2.10;;;17.30;72.80;;;;;;5017743;28;96481;-59
2022/06/20 14:03:05;;;;;;;2.88;2.08;;;17.40;72.80;;;;;;5008929;27;95982;-61
2022/06/20 14:05:38;;;;;;;2.80;2.55;;;17.40;72.70;;;;;;5021951;28;96015;-61
2022/06/20 14:08:31;;;;;;;2.22;2.10;;;17.40;72.70;;;;;;5007119;27;97143;-61
2022/06/20 14:11:22;;;;;;;3.85;2.10;;;17.50;72.50;;;;;;5015921;28;96867;-62
2022/06/20 14:13:55;;;;;;;2.83;2.47;;;17.50;72.40;;;;;;5019179;28;96005;-62
2022/06/20 14:16:27;;;;;;;2.75;2.50;;;17.40;72.30;;;;;;5007108;28;97421;-64
2022/06/20 14:19:10;;;;;;;2.28;2.13;;;17.50;72.30;;;;;;5017276;28;96176;-64
2022/06/20 14:21:47;;;;;;;2.60;2.22;;;17.50;72.20;;;;;;5015237;28;96365;-63
2022/06/20 14:24:40;;;;;;;3.90;2.25;;;17.50;72.30;;;;;;5014486;28;95695;-65
2022/06/20 14:27:24;;;;;;;2.20;2.00;;;17.40;72.30;;;;;;5012945;28;95857;-63
2022/06/20 14:30:14;;;;;;;2.33;2.13;;;17.40;72.30;;;;;;5023355;28;95874;-64
2022/06/20 14:33:05;;;;;;;2.63;2.20;;;17.40;72.30;;;;;;5020213;28;102538;-64
2022/06/20 14:36:06;;;;;;;2.45;2.25;;;17.40;72.30;;;;;;5014945;28;95805;-61
2022/06/20 14:38:47;;;;;;;2.92;2.65;;;17.40;72.50;;;;;;5014151;28;95792;-61
2022/06/20 14:41:54;;;;;;;2.90;2.10;;;17.40;72.60;;;;;;5014664;28;95748;-62
2022/06/20 14:44:41;;;;;;;4.53;2.72;;;17.40;72.50;;;;;;5012610;28;96589;-62